createdAt,value
2018-07-26T00:01:58.168Z,10.50
2018-07-26T00:04:39.675Z,11.13
2018-07-26T00:07:21.481Z,11.70
2018-07-26T00:10:04.304Z,10.00
2018-07-26T00:12:45.902Z,10.70
2018-07-26T00:15:27.295Z,10.83
2018-07-26T00:18:08.952Z,9.83
2018-07-26T00:20:51.616Z,8.97
2018-07-26T00:23:34.276Z,9.47
2018-07-26T00:26:15.669Z,9.73
2018-07-26T00:28:57.163Z,8.73
2018-07-26T00:31:38.738Z,7.60
2018-07-26T00:34:20.512Z,7.80
2018-07-26T00:37:02.123Z,6.37
2018-07-26T00:39:44.886Z,7.60
2018-07-26T00:42:26.215Z,6.70
2018-07-26T00:45:08.643Z,6.77
2018-07-26T00:47:50.241Z,6.90
2018-07-26T00:50:31.618Z,7.40
2018-07-26T00:53:16.833Z,8.10
2018-07-26T00:55:58.319Z,7.20
2018-07-26T00:58:40.928Z,7.10
2018-07-26T01:01:23.037Z,6.77
2018-07-26T01:04:05.091Z,7.67
2018-07-26T01:06:46.616Z,9.87
2018-07-26T01:09:28.604Z,8.10
2018-07-26T01:12:10.090Z,7.90
2018-07-26T01:14:52.072Z,7.40
2018-07-26T01:17:34.176Z,6.77
2018-07-26T01:20:15.571Z,7.43
2018-07-26T01:22:57.325Z,7.07
2018-07-26T01:25:39.321Z,8.03
2018-07-26T01:28:21.597Z,9.40
2018-07-26T01:31:04.120Z,9.57
2018-07-26T01:33:46.747Z,9.90
2018-07-26T01:36:28.113Z,9.93
2018-07-26T01:39:10.486Z,9.67
2018-07-26T01:41:52.750Z,10.80
2018-07-26T01:44:36.932Z,11.07
2018-07-26T01:47:18.531Z,10.33
2018-07-26T01:49:59.983Z,10.87
2018-07-26T01:52:41.546Z,10.80
2018-07-26T01:55:22.907Z,9.47
2018-07-26T01:58:06.943Z,11.03
2018-07-26T02:04:10.506Z,11.80
2018-07-26T02:06:53.702Z,10.43
2018-07-26T02:09:35.227Z,10.30
2018-07-26T02:12:16.677Z,11.30
2018-07-26T02:14:58.917Z,11.50
2018-07-26T02:17:40.431Z,10.60
2018-07-26T02:20:22.479Z,10.40
2018-07-26T02:23:05.415Z,10.00
2018-07-26T02:25:47.490Z,9.50
2018-07-26T02:28:29.012Z,9.60
2018-07-26T02:31:11.702Z,9.97
2018-07-26T02:33:54.265Z,10.10
2018-07-26T02:36:35.650Z,9.77
2018-07-26T02:39:17.433Z,9.17
2018-07-26T02:41:58.786Z,9.03
2018-07-26T02:44:40.613Z,9.37
2018-07-26T02:47:23.142Z,8.40
2018-07-26T02:50:04.552Z,8.57
2018-07-26T02:52:46.011Z,8.43
2018-07-26T02:55:27.992Z,8.50
2018-07-26T02:58:09.459Z,8.67
2018-07-26T03:00:51.591Z,8.63
2018-07-26T03:03:33.857Z,8.10
2018-07-26T03:06:16.310Z,7.67
2018-07-26T03:08:57.639Z,8.13
2018-07-26T03:11:39.044Z,8.23
2018-07-26T03:14:22.532Z,7.93
2018-07-26T03:17:04.226Z,7.60
2018-07-26T03:19:45.757Z,8.30
2018-07-26T03:22:28.080Z,8.60
2018-07-26T03:25:09.287Z,8.10
2018-07-26T03:27:51.596Z,8.13
2018-07-26T03:30:33.084Z,8.17
2018-07-26T03:33:14.450Z,8.87
2018-07-26T03:35:56.446Z,8.17
2018-07-26T03:38:41.348Z,8.57
2018-07-26T03:41:24.367Z,7.73
2018-07-26T03:44:06.380Z,9.27
2018-07-26T03:46:47.891Z,10.53
2018-07-26T03:49:29.619Z,10.37
2018-07-26T03:52:11.008Z,9.57
2018-07-26T03:54:54.476Z,10.00
2018-07-26T03:57:40.943Z,10.43
2018-07-26T04:00:24.426Z,10.23
2018-07-26T04:03:06.539Z,10.40
2018-07-26T04:05:48.751Z,11.10
2018-07-26T04:08:31.186Z,12.33
2018-07-26T04:11:13.491Z,11.40
2018-07-26T04:13:56.116Z,11.17
2018-07-26T04:16:37.552Z,11.27
2018-07-26T04:19:18.908Z,10.97
2018-07-26T04:22:01.412Z,10.17
2018-07-26T04:24:42.811Z,9.90
2018-07-26T04:27:25.408Z,10.17
2018-07-26T04:30:11.144Z,11.40
2018-07-26T04:32:54.473Z,11.90
2018-07-26T04:35:36.292Z,12.50
2018-07-26T04:38:17.876Z,12.43
2018-07-26T04:41:00.788Z,13.23
2018-07-26T04:43:42.267Z,12.70
2018-07-26T04:46:25.636Z,13.43
2018-07-26T04:49:07.147Z,14.23
2018-07-26T04:51:48.969Z,13.80
2018-07-26T04:54:32.073Z,14.83
2018-07-26T04:57:13.330Z,14.17
2018-07-26T04:59:56.016Z,13.43
2018-07-26T05:02:38.380Z,13.70
2018-07-26T05:05:19.816Z,14.10
2018-07-26T05:08:01.750Z,13.53
2018-07-26T05:10:43.143Z,13.27
2018-07-26T05:13:25.304Z,13.53
2018-07-26T05:16:06.892Z,14.27
2018-07-26T05:18:48.330Z,14.43
2018-07-26T05:21:30.128Z,14.80
2018-07-26T05:24:11.775Z,13.17
2018-07-26T05:26:55.636Z,13.27
2018-07-26T05:29:37.811Z,13.63
2018-07-26T05:32:19.206Z,13.90
2018-07-26T05:35:01.679Z,12.73
2018-07-26T05:37:42.930Z,11.97
2018-07-26T05:40:25.748Z,12.83
2018-07-26T05:43:07.562Z,11.70
2018-07-26T05:45:49.151Z,13.50
2018-07-26T05:48:32.288Z,13.17
2018-07-26T05:51:13.771Z,13.20
2018-07-26T05:53:56.128Z,14.80
2018-07-26T05:56:38.675Z,13.67
2018-07-26T05:59:20.035Z,13.17
2018-07-26T06:02:01.468Z,13.90
2018-07-26T06:04:42.885Z,14.10
2018-07-26T06:07:25.601Z,15.17
2018-07-26T06:10:08.523Z,15.50
2018-07-26T06:12:50.119Z,14.87
2018-07-26T06:15:32.636Z,15.50
2018-07-26T06:18:14.038Z,17.33
2018-07-26T06:20:56.967Z,16.67
2018-07-26T06:23:38.163Z,16.37
2018-07-26T06:26:19.604Z,16.27
2018-07-26T06:29:01.652Z,17.10
2018-07-26T06:31:43.006Z,15.87
2018-07-26T06:34:25.907Z,18.37
2018-07-26T06:37:07.635Z,16.93
2018-07-26T06:39:49.083Z,16.77
2018-07-26T06:42:31.654Z,16.03
2018-07-26T06:45:13.017Z,16.23
2018-07-26T06:47:55.628Z,18.37
2018-07-26T06:50:37.211Z,16.47
2018-07-26T06:53:18.735Z,15.80
2018-07-26T06:56:00.208Z,17.37
2018-07-26T06:58:41.753Z,15.63
2018-07-26T07:01:25.492Z,18.37
2018-07-26T07:04:08.040Z,16.53
2018-07-26T07:06:50.272Z,18.10
2018-07-26T07:09:31.873Z,17.33
2018-07-26T07:12:13.705Z,17.57
2018-07-26T07:14:57.814Z,17.60
2018-07-26T07:17:39.128Z,16.97
2018-07-26T07:20:20.160Z,17.57
2018-07-26T07:23:03.007Z,17.57
2018-07-26T07:25:44.780Z,17.87
2018-07-26T07:28:27.219Z,17.90
2018-07-26T07:31:08.692Z,16.70
2018-07-26T07:33:50.300Z,18.00
2018-07-26T07:36:31.940Z,16.20
2018-07-26T07:39:14.816Z,17.77
2018-07-26T07:41:57.227Z,16.80
2018-07-26T07:44:38.570Z,15.13
2018-07-26T07:47:21.510Z,15.60
2018-07-26T07:50:03.033Z,15.50
2018-07-26T07:52:44.452Z,15.97
2018-07-26T07:55:26.832Z,15.90
2018-07-26T07:58:08.299Z,13.53
2018-07-26T08:00:49.999Z,13.00
2018-07-26T08:03:31.674Z,14.30
2018-07-26T08:06:13.169Z,12.97
2018-07-26T08:08:55.341Z,14.07
2018-07-26T08:11:38.336Z,13.70
2018-07-26T08:14:19.705Z,15.30
2018-07-26T08:17:02.405Z,15.20
2018-07-26T08:19:43.862Z,16.10
2018-07-26T08:22:25.961Z,13.87
2018-07-26T08:25:08.573Z,12.47
2018-07-26T08:27:50.028Z,12.40
2018-07-26T08:30:31.496Z,12.33
2018-07-26T08:33:12.929Z,13.00
2018-07-26T08:35:56.152Z,13.43
2018-07-26T08:38:37.800Z,12.97
2018-07-26T08:41:19.345Z,13.30
2018-07-26T08:44:01.696Z,14.03
2018-07-26T08:46:43.207Z,12.90
2018-07-26T08:49:25.605Z,11.77
2018-07-26T08:52:07.212Z,9.10
2018-07-26T08:54:49.107Z,10.13
2018-07-26T08:57:31.284Z,9.07
2018-07-26T09:00:16.285Z,9.53
2018-07-26T09:02:57.859Z,9.27
2018-07-26T09:05:39.214Z,9.07
2018-07-26T09:08:21.801Z,9.17
2018-07-26T09:11:04.557Z,9.27
2018-07-26T09:13:46.168Z,9.00
2018-07-26T09:16:27.706Z,10.77
2018-07-26T09:19:09.252Z,10.07
2018-07-26T09:21:51.513Z,8.83
2018-07-26T09:24:33.160Z,9.50
2018-07-26T09:27:14.504Z,10.80
2018-07-26T09:29:56.576Z,11.67
2018-07-26T09:32:39.877Z,10.83
2018-07-26T09:35:22.788Z,9.73
2018-07-26T09:38:04.362Z,11.70
2018-07-26T09:40:45.757Z,10.07
2018-07-26T09:43:27.177Z,10.33
2018-07-26T09:46:08.758Z,10.63
2018-07-26T09:48:51.791Z,10.00
2018-07-26T09:51:34.882Z,8.80
2018-07-26T09:54:17.255Z,7.80
2018-07-26T09:56:58.648Z,8.80
2018-07-26T09:59:41.613Z,9.70
2018-07-26T10:02:24.444Z,10.13
2018-07-26T10:05:06.737Z,10.70
2018-07-26T10:07:48.702Z,10.03
2018-07-26T10:10:31.716Z,8.87
2018-07-26T10:13:13.322Z,8.97
2018-07-26T10:15:55.632Z,10.93
2018-07-26T10:18:40.900Z,10.20
2018-07-26T10:21:24.526Z,11.57
2018-07-26T10:24:06.018Z,10.70
2018-07-26T10:26:47.273Z,8.77
2018-07-26T10:29:28.771Z,8.30
2018-07-26T10:32:10.445Z,9.27
2018-07-26T10:34:54.529Z,9.10
2018-07-26T10:37:36.170Z,8.73
2018-07-26T10:40:17.625Z,8.37
2018-07-26T10:42:59.648Z,7.70
2018-07-26T10:45:41.140Z,7.10
2018-07-26T10:48:24.692Z,6.37
2018-07-26T10:51:06.149Z,7.60
2018-07-26T10:53:47.568Z,7.90
2018-07-26T10:56:29.314Z,7.60
2018-07-26T10:59:10.649Z,7.07
2018-07-26T11:01:54.492Z,7.13
2018-07-26T11:04:35.925Z,7.33
2018-07-26T11:07:17.444Z,6.30
2018-07-26T11:09:59.806Z,5.63
2018-07-26T11:12:41.189Z,5.60
2018-07-26T11:15:29.575Z,5.90
2018-07-26T11:18:11.517Z,5.77
2018-07-26T11:20:54.831Z,6.10
2018-07-26T11:23:36.213Z,6.33
2018-07-26T11:26:17.748Z,6.27
2018-07-26T11:28:59.041Z,6.40
2018-07-26T11:31:40.450Z,6.70
2018-07-26T11:34:23.096Z,6.10
2018-07-26T11:37:05.113Z,5.90
2018-07-26T11:39:46.710Z,6.00
2018-07-26T11:42:28.059Z,6.13
2018-07-26T11:45:10.761Z,6.43
2018-07-26T11:47:54.728Z,6.57
2018-07-26T11:50:36.120Z,7.03
2018-07-26T11:53:17.232Z,6.57
2018-07-26T11:55:58.577Z,6.30
2018-07-26T11:58:40.621Z,6.53
2018-07-26T12:01:23.276Z,6.17
2018-07-26T12:04:04.846Z,7.27
2018-07-26T12:06:46.316Z,6.90
2018-07-26T12:09:27.872Z,5.27
2018-07-26T12:12:10.546Z,4.97
2018-07-26T12:14:53.134Z,5.80
2018-07-26T12:17:34.650Z,5.43
2018-07-26T12:20:16.077Z,6.50
2018-07-26T12:22:57.548Z,6.60
2018-07-26T12:25:38.941Z,7.90
2018-07-26T12:28:21.828Z,6.83
2018-07-26T12:31:04.368Z,6.30
2018-07-26T12:33:45.645Z,6.07
2018-07-26T12:36:27.364Z,6.53
2018-07-26T12:39:11.448Z,6.50
2018-07-26T12:41:55.690Z,6.83
2018-07-26T12:44:37.016Z,6.90
2018-07-26T12:47:18.422Z,7.43
2018-07-26T12:49:59.987Z,7.77
2018-07-26T12:52:41.421Z,7.90
2018-07-26T12:55:24.631Z,7.40
2018-07-26T12:58:05.925Z,7.30
2018-07-26T13:00:47.206Z,7.00
2018-07-26T13:03:28.568Z,6.93
2018-07-26T13:06:09.948Z,7.13
2018-07-26T13:08:51.860Z,7.37
2018-07-26T13:11:34.104Z,7.37
2018-07-26T13:14:15.517Z,7.33
2018-07-26T13:16:57.465Z,7.77
2018-07-26T13:19:38.902Z,7.97
2018-07-26T13:22:21.658Z,8.43
2018-07-26T13:25:03.029Z,7.23
2018-07-26T13:27:44.549Z,7.40
2018-07-26T13:30:26.687Z,6.80
2018-07-26T13:33:08.862Z,7.10
2018-07-26T13:35:50.985Z,7.33
2018-07-26T13:38:35.169Z,6.33
2018-07-26T13:41:19.429Z,5.77
2018-07-26T13:44:01.569Z,5.43
2018-07-26T13:46:42.964Z,4.53
2018-07-26T13:49:25.674Z,3.83
2018-07-26T13:52:07.482Z,4.10
2018-07-26T13:54:48.880Z,4.07
2018-07-26T13:57:30.296Z,3.87
2018-07-26T14:00:14.492Z,4.30
2018-07-26T14:02:57.452Z,5.93
2018-07-26T14:05:39.012Z,5.50
2018-07-26T14:08:21.896Z,5.03
2018-07-26T14:11:03.331Z,5.20
2018-07-26T14:13:44.877Z,5.37
2018-07-26T14:16:27.255Z,4.93
2018-07-26T14:19:09.773Z,4.63
2018-07-26T14:21:51.887Z,5.43
2018-07-26T14:24:33.817Z,6.00
2018-07-26T14:27:15.272Z,6.60
2018-07-26T14:29:58.056Z,6.50
2018-07-26T14:32:39.499Z,6.43
2018-07-26T14:35:21.773Z,7.03
2018-07-26T14:38:03.108Z,7.37
2018-07-26T14:40:44.605Z,7.30
2018-07-26T14:43:27.242Z,7.40
2018-07-26T14:46:08.917Z,6.93
2018-07-26T14:48:50.459Z,7.33
2018-07-26T14:51:31.907Z,7.47
2018-07-26T14:54:14.140Z,6.83
2018-07-26T14:56:56.181Z,6.83
2018-07-26T14:59:37.558Z,6.67
2018-07-26T15:02:19.949Z,6.73
2018-07-26T15:05:01.845Z,9.40
2018-07-26T15:07:43.272Z,7.97
2018-07-26T15:10:26.028Z,7.60
2018-07-26T15:13:07.285Z,7.27
2018-07-26T15:15:48.726Z,7.53
2018-07-26T15:18:30.577Z,7.17
2018-07-26T15:21:12.842Z,7.70
2018-07-26T15:23:55.787Z,7.70
2018-07-26T15:26:37.723Z,7.50
2018-07-26T15:29:19.316Z,7.03
2018-07-26T15:32:01.399Z,7.30
2018-07-26T15:34:43.165Z,8.57
2018-07-26T15:37:25.620Z,7.13
2018-07-26T15:40:08.065Z,7.03
2018-07-26T15:42:49.925Z,7.07
2018-07-26T15:45:32.198Z,6.50
2018-07-26T15:48:13.774Z,6.70
2018-07-26T15:50:59.120Z,6.13
2018-07-26T15:53:41.057Z,7.20
2018-07-26T15:56:23.375Z,6.23
2018-07-26T15:59:04.988Z,6.33
2018-07-26T16:01:46.485Z,6.47
2018-07-26T16:04:27.705Z,6.50
2018-07-26T16:07:08.985Z,6.90
2018-07-26T16:09:51.889Z,7.27
2018-07-26T16:12:46.098Z,6.63
2018-07-26T16:15:30.313Z,7.27
2018-07-26T16:18:15.245Z,6.83
2018-07-26T16:20:57.356Z,7.33
2018-07-26T16:23:41.881Z,6.80
2018-07-26T16:26:23.928Z,8.10
2018-07-26T16:29:06.545Z,6.70
2018-07-26T16:31:48.689Z,7.23
2018-07-26T16:34:31.274Z,7.57
2018-07-26T16:37:13.090Z,7.70
2018-07-26T16:39:54.768Z,7.77
2018-07-26T16:42:36.179Z,7.20
2018-07-26T16:45:17.589Z,8.07
2018-07-26T16:47:59.048Z,8.10
2018-07-26T16:50:40.804Z,8.10
2018-07-26T16:53:22.591Z,7.33
2018-07-26T16:56:05.475Z,8.27
2018-07-26T16:58:47.475Z,7.90
2018-07-26T17:01:28.926Z,7.63
2018-07-26T17:04:10.411Z,7.67
2018-07-26T17:06:52.839Z,7.80
2018-07-26T17:09:34.900Z,8.07
2018-07-26T17:12:16.463Z,7.63
2018-07-26T17:14:57.959Z,8.40
2018-07-26T17:17:52.983Z,8.10
2018-07-26T17:20:38.236Z,8.33
2018-07-26T17:23:20.643Z,8.50
2018-07-26T17:26:04.128Z,8.27
2018-07-26T17:28:45.630Z,8.67
2018-07-26T17:31:27.148Z,8.37
2018-07-26T17:34:08.640Z,8.70
2018-07-26T17:36:50.953Z,9.17
2018-07-26T17:39:33.614Z,9.03
2018-07-26T17:42:15.245Z,8.30
2018-07-26T17:44:57.190Z,9.10
2018-07-26T17:47:38.760Z,9.50
2018-07-26T17:50:20.677Z,9.87
2018-07-26T17:53:18.663Z,10.03
2018-07-26T17:56:00.212Z,10.93
2018-07-26T17:58:42.987Z,11.80
2018-07-26T18:01:24.384Z,12.27
2018-07-26T18:04:06.496Z,11.50
2018-07-26T18:06:47.954Z,11.53
2018-07-26T18:09:29.369Z,11.83
2018-07-26T18:12:11.459Z,12.00
2018-07-26T18:14:53.023Z,12.63
2018-07-26T18:17:35.847Z,12.20
2018-07-26T18:20:17.425Z,13.33
2018-07-26T18:22:58.999Z,13.83
2018-07-26T18:25:41.351Z,13.43
2018-07-26T18:28:22.801Z,13.93
2018-07-26T18:31:05.390Z,13.80
2018-07-26T18:33:48.244Z,13.87
2018-07-26T18:36:29.544Z,13.77
2018-07-26T18:39:13.433Z,13.37
2018-07-26T18:41:55.093Z,14.03
2018-07-26T18:44:37.053Z,13.37
2018-07-26T18:47:19.812Z,14.37
2018-07-26T18:50:02.423Z,12.80
2018-07-26T18:52:44.047Z,13.03
2018-07-26T18:55:25.452Z,12.03
2018-07-26T18:58:07.412Z,13.03
2018-07-26T19:00:49.700Z,13.37
2018-07-26T19:03:32.347Z,13.37
2018-07-26T19:06:14.345Z,13.33
2018-07-26T19:08:57.675Z,11.80
2018-07-26T19:11:42.209Z,13.17
2018-07-26T19:14:23.993Z,12.63
2018-07-26T19:17:06.548Z,12.23
2018-07-26T19:20:20.365Z,13.47
2018-07-26T19:23:01.909Z,15.30
2018-07-26T19:25:45.089Z,19.60
2018-07-26T19:28:27.060Z,14.40
2018-07-26T19:31:09.568Z,12.67
2018-07-26T19:33:51.592Z,13.77
2018-07-26T19:36:33.055Z,12.57
2018-07-26T19:39:14.760Z,12.93
2018-07-26T19:41:56.997Z,13.70
2018-07-26T19:44:40.209Z,13.43
2018-07-26T19:47:21.695Z,11.90
2018-07-26T19:50:03.297Z,12.53
2018-07-26T19:52:46.128Z,13.07
2018-07-26T19:55:27.613Z,13.37
2018-07-26T19:58:09.989Z,13.10
2018-07-26T20:01:05.560Z,12.60
2018-07-26T20:03:48.090Z,13.27
2018-07-26T20:06:29.548Z,13.43
2018-07-26T20:09:11.936Z,12.37
2018-07-26T20:12:00.312Z,13.53
2018-07-26T20:20:34.146Z,12.23
2018-07-26T20:23:16.534Z,11.43
2018-07-26T20:25:57.977Z,12.93
2018-07-26T20:28:43.944Z,12.03
2018-07-26T20:31:26.364Z,12.07
2018-07-26T20:34:08.001Z,11.43
2018-07-26T20:36:49.594Z,12.30
2018-07-26T20:39:31.011Z,10.80
2018-07-26T20:42:13.563Z,11.43
2018-07-26T20:44:54.973Z,11.73
2018-07-26T20:47:36.379Z,11.40
2018-07-26T20:50:18.833Z,12.27
2018-07-26T20:53:00.498Z,12.70
2018-07-26T20:55:41.958Z,12.53
2018-07-26T20:58:24.315Z,12.63
2018-07-26T21:01:05.886Z,12.90
2018-07-26T21:03:48.498Z,16.53
2018-07-26T21:06:30.060Z,15.43
2018-07-26T21:09:13.753Z,14.83
2018-07-26T21:11:55.335Z,14.63
2018-07-26T21:14:36.821Z,14.37
2018-07-26T21:17:18.966Z,13.80
2018-07-26T21:20:03.483Z,14.37
2018-07-26T21:22:46.661Z,14.00
2018-07-26T21:25:28.228Z,13.43
2018-07-26T21:28:09.853Z,14.40
2018-07-26T21:30:52.396Z,14.43
2018-07-26T21:33:33.939Z,13.67
2018-07-26T21:36:16.772Z,14.30
2018-07-26T21:38:58.222Z,14.77
2018-07-26T21:41:40.351Z,13.83
2018-07-26T21:44:21.746Z,14.57
2018-07-26T21:47:03.573Z,14.57
2018-07-26T21:49:49.935Z,11.50
2018-07-26T21:52:31.455Z,15.03
2018-07-26T21:55:13.179Z,13.93
2018-07-26T21:57:55.140Z,14.30
2018-07-26T22:00:42.071Z,13.60
2018-07-26T22:03:23.676Z,12.70
2018-07-26T22:06:06.488Z,12.97
2018-07-26T22:08:49.888Z,13.57
2018-07-26T22:11:31.425Z,13.33
2018-07-26T22:14:12.812Z,12.00
2018-07-26T22:16:55.005Z,11.53
2018-07-26T22:19:36.440Z,12.77
2018-07-26T22:22:19.686Z,11.73
2018-07-26T22:25:01.624Z,12.77
2018-07-26T22:27:42.922Z,12.90
2018-07-26T22:30:26.213Z,13.30
2018-07-26T22:33:08.692Z,13.37
2018-07-26T22:35:51.038Z,14.10
2018-07-26T22:38:33.093Z,14.23
2018-07-26T22:41:15.137Z,14.07
2018-07-26T22:43:57.730Z,13.87
2018-07-26T22:46:38.918Z,14.40
2018-07-26T22:49:22.602Z,14.30
2018-07-26T22:52:04.111Z,13.70
2018-07-26T22:54:45.545Z,14.03
2018-07-26T22:57:27.334Z,13.80
2018-07-26T23:00:09.194Z,15.10
2018-07-26T23:02:52.507Z,14.57
2018-07-26T23:05:33.917Z,14.20
2018-07-26T23:08:16.653Z,14.80
2018-07-26T23:10:58.473Z,14.83
2018-07-26T23:13:40.000Z,16.53
2018-07-26T23:16:21.999Z,16.43
2018-07-26T23:19:04.991Z,16.50
2018-07-26T23:21:48.651Z,15.80
2018-07-26T23:24:30.922Z,16.57
2018-07-26T23:27:12.709Z,15.83
2018-07-26T23:29:55.113Z,16.37
2018-07-26T23:32:36.521Z,16.23
2018-07-26T23:35:17.979Z,17.40
2018-07-26T23:37:59.613Z,16.87
2018-07-26T23:40:41.954Z,16.10
2018-07-26T23:43:24.878Z,16.27
2018-07-26T23:46:07.309Z,17.70
2018-07-26T23:48:51.034Z,17.93
2018-07-26T23:51:33.396Z,18.60
2018-07-26T23:54:14.876Z,18.80
2018-07-26T23:56:57.196Z,18.60
2018-07-26T23:59:38.676Z,18.57
